Cullom, Illinois
Current Conditions -  °F | °C
As of 12:15 PM on Thursday 27 Nov 2014 (Local Time) from KPNT Reporting Station
Light Snow Light Snow  
Wind Chill: 17°   Ceiling: 1400
Heat Index: 28°   Visibility: 4mi
Dew Point: 25°   Wind: 16mph
Humidity: 86%   Direction: 290°WNW
Pressure: 30.38"   Gusts: 21mph
Location:  40.88°N, 88.27°W
Report Text: KPNT 271815Z AUTO 29014G18KT 4SM -SN BKN014 BKN022 OVC035 M02/M04 A3038 RMK AO2 T10201041
Loading
Personal Weather Stations






























Interactive Weather Map New forecast layout! Learn more

10-Day Weather Forecast

Advertisements
Track Severe Weather on mobile